Time;durP1;ratioP1;P1;durP2;ratioP2;P2;SDS_P1;SDS_P2;PMS_P1;PMS_P2;Temp;Humidity;BMP_temperature;BMP_pressure;BME280_temperature;BME280_humidity;BME280_pressure;Samples;Min_cycle;Max_cycle;Signal;HPM_P1;HPM_P2
2022/09/29 00:00:27;;;;;;;4.90;3.00;;;;;;;12.47;69.78;100046.84;6189685;23;20008;-75
2022/09/29 00:02:52;;;;;;;6.07;3.20;;;;;;;12.43;69.86;100035.56;6213896;23;20803;-74
2022/09/29 00:05:18;;;;;;;6.47;3.30;;;;;;;12.41;69.86;100036.44;6215421;23;20320;-75
2022/09/29 00:07:43;;;;;;;6.00;3.15;;;;;;;12.47;70.12;100042.50;6220167;23;20008;-75
2022/09/29 00:10:09;;;;;;;6.35;3.42;;;;;;;12.44;70.06;100046.88;6211708;23;20008;-75
2022/09/29 00:12:34;;;;;;;6.88;3.58;;;;;;;12.46;70.13;100042.50;6218325;23;20073;-74
2022/09/29 00:14:59;;;;;;;7.88;3.40;;;;;;;12.51;69.97;100046.81;6187218;23;20016;-75
2022/09/29 00:17:25;;;;;;;5.00;3.05;;;;;;;12.57;69.96;100041.53;6221151;23;20307;-75
2022/09/29 00:19:50;;;;;;;5.35;3.38;;;;;;;12.46;70.23;100045.13;6218482;23;20036;-75
2022/09/29 00:22:15;;;;;;;6.03;3.47;;;;;;;12.39;70.58;100044.28;6212280;23;20016;-75
2022/09/29 00:24:41;;;;;;;5.35;3.38;;;;;;;12.45;70.26;100044.25;6212741;23;20571;-74
2022/09/29 00:27:06;;;;;;;7.60;3.50;;;;;;;12.47;70.13;100039.88;6214035;23;20242;-75
2022/09/29 00:29:32;;;;;;;6.60;3.55;;;;;;;12.50;69.87;100042.47;6218833;23;20019;-74
2022/09/29 00:31:57;;;;;;;6.38;3.70;;;;;;;12.51;70.08;100043.31;6218782;23;20073;-74
2022/09/29 00:34:22;;;;;;;5.88;3.40;;;;;;;12.49;70.27;100045.97;6210049;23;20018;-74
2022/09/29 00:36:48;;;;;;;5.28;3.63;;;;;;;12.49;69.91;100043.38;6194328;23;20004;-74
2022/09/29 00:39:13;;;;;;;7.32;3.50;;;;;;;12.49;69.81;100045.09;6214966;23;20016;-75
2022/09/29 00:41:40;;;;;;;6.55;3.20;;;;;;;12.51;69.51;100032.88;6192690;23;20004;-75
2022/09/29 00:44:08;;;;;;;5.88;3.60;;;;;;;12.44;69.66;100045.13;6210053;23;20004;-74
2022/09/29 00:46:33;;;;;;;6.97;3.47;;;;;;;12.43;69.51;100037.31;6219009;23;20083;-74
2022/09/29 00:49:03;;;;;;;5.82;3.30;;;;;;;12.45;69.41;100038.13;6222216;23;20126;-74
2022/09/29 00:51:30;;;;;;;5.30;3.35;;;;;;;12.44;69.39;100039.06;6187853;23;20019;-75
2022/09/29 00:53:57;;;;;;;6.75;3.78;;;;;;;12.41;69.40;100037.31;6215259;23;20008;-75
2022/09/29 00:56:24;;;;;;;5.63;3.70;;;;;;;12.39;69.20;100039.06;6209098;23;20011;-75
2022/09/29 00:59:13;;;;;;;6.53;3.58;;;;;;;12.37;69.48;100038.22;6218653;23;20004;-75
2022/09/29 01:01:38;;;;;;;7.82;3.72;;;;;;;12.38;69.31;100037.31;6215155;23;20068;-75
2022/09/29 01:04:10;;;;;;;8.48;4.55;;;;;;;12.33;69.87;100043.47;6205739;23;20105;-76
2022/09/29 01:06:39;;;;;;;9.77;4.68;;;;;;;12.33;70.08;100041.72;6191378;23;20003;-76
2022/09/29 01:09:09;;;;;;;7.85;4.68;;;;;;;12.33;70.06;100036.50;6215530;23;20012;-74
2022/09/29 01:11:35;;;;;;;7.72;4.30;;;;;;;12.35;70.36;100036.47;6216098;23;20019;-74
2022/09/29 01:14:04;;;;;;;7.20;4.80;;;;;;;12.32;70.30;100036.53;6216719;23;20012;-74
2022/09/29 01:16:31;;;;;;;12.70;4.90;;;;;;;12.27;70.84;100036.53;6218220;23;20015;-74
2022/09/29 01:18:59;;;;;;;10.07;5.05;;;;;;;12.30;70.63;100035.66;6216365;23;20008;-74
2022/09/29 01:21:40;;;;;;;9.30;5.00;;;;;;;12.36;70.20;100036.47;6212242;23;20039;-74
2022/09/29 01:24:27;;;;;;;9.45;5.10;;;;;;;12.38;70.07;100032.09;6213029;23;20410;-74
2022/09/29 01:27:05;;;;;;;9.15;5.43;;;;;;;12.33;70.72;100038.22;6215195;23;20035;-74
2022/09/29 01:29:42;;;;;;;8.90;5.72;;;;;;;12.38;70.50;100031.25;6222281;23;20011;-74
2022/09/29 01:32:18;;;;;;;9.45;5.85;;;;;;;12.45;70.64;100035.53;6212497;23;20036;-73
2022/09/29 01:35:08;;;;;;;10.02;5.55;;;;;;;12.54;70.29;100035.47;6243824;23;20046;-74
2022/09/29 01:37:50;;;;;;;10.02;5.30;;;;;;;12.58;70.15;100029.31;6218810;23;20086;-74
2022/09/29 01:40:37;;;;;;;10.40;6.07;;;;;;;12.51;71.26;100036.34;6209001;23;20016;-74
2022/09/29 01:43:04;;;;;;;10.63;5.97;;;;;;;12.53;71.02;100039.84;6211963;23;20098;-75
2022/09/29 01:45:39;;;;;;;11.02;5.95;;;;;;;12.54;70.94;100038.09;6211938;23;20091;-75
2022/09/29 01:48:17;;;;;;;;;;;;;;;12.60;70.74;100040.66;6186265;23;20012;-73
2022/09/29 01:50:48;;;;;;;7.78;5.07;;;;;;;12.60;70.27;100038.91;6215699;23;20335;-75
2022/09/29 01:53:27;;;;;;;10.98;5.78;;;;;;;12.60;70.12;100038.03;6216271;23;20008;-75
2022/09/29 01:56:01;;;;;;;9.30;5.20;;;;;;;12.60;70.10;100040.66;6217393;23;20331;-75
2022/09/29 01:58:33;;;;;;;11.20;6.20;;;;;;;12.57;70.25;100033.69;6216225;23;20012;-75
2022/09/29 02:01:04;;;;;;;11.90;6.70;;;;;;;12.53;70.37;100041.56;6214755;23;20008;-75
2022/09/29 02:03:50;;;;;;;11.35;6.00;;;;;;;12.53;70.18;100039.84;6209640;23;20181;-74
2022/09/29 02:06:20;;;;;;;10.35;6.20;;;;;;;12.53;70.09;100041.56;6211241;23;20531;-75
2022/09/29 02:08:51;;;;;;;10.60;6.53;;;;;;;12.47;70.22;100039.88;6214689;23;20022;-75
2022/09/29 02:11:17;;;;;;;10.50;6.20;;;;;;;12.40;70.07;100046.03;6217517;23;20042;-75
2022/09/29 02:13:56;;;;;;;10.02;6.45;;;;;;;12.41;69.64;100045.16;6216081;23;20384;-74
2022/09/29 02:16:28;;;;;;;14.18;7.28;;;;;;;12.31;70.37;100038.25;6210417;23;20437;-74
2022/09/29 02:18:54;;;;;;;13.82;7.00;;;;;;;12.34;69.93;100039.97;6221031;23;20032;-73
2022/09/29 02:21:23;;;;;;;12.55;7.55;;;;;;;12.31;69.69;100043.50;6209755;22;20436;-74
2022/09/29 02:23:50;;;;;;;13.73;7.45;;;;;;;12.27;70.17;100036.53;6217194;23;20081;-74
2022/09/29 02:26:17;;;;;;;13.40;7.65;;;;;;;12.23;69.91;100040.06;6207245;22;20008;-74
2022/09/29 02:28:43;;;;;;;11.35;6.45;;;;;;;12.22;69.88;100038.31;6216963;23;20008;-74
2022/09/29 02:31:08;;;;;;;14.80;7.97;;;;;;;12.16;70.20;100039.22;6215303;23;20004;-75
2022/09/29 02:33:34;;;;;;;10.27;6.75;;;;;;;12.18;69.80;100045.31;6212492;23;20448;-74
2022/09/29 02:36:12;;;;;;;13.18;7.38;;;;;;;12.13;69.53;100038.38;6212749;23;20434;-74
2022/09/29 02:38:59;;;;;;;12.07;7.32;;;;;;;12.11;69.65;100041.00;6215088;23;20487;-74
2022/09/29 02:41:49;;;;;;;11.68;6.90;;;;;;;12.10;69.74;100047.09;6218440;23;20483;-74
2022/09/29 02:44:51;;;;;;;10.68;6.75;;;;;;;12.07;69.66;100043.66;6206750;23;20012;-74
2022/09/29 02:47:30;;;;;;;12.40;7.25;;;;;;;12.07;69.67;100038.44;6217191;23;20019;-73
2022/09/29 02:50:35;;;;;;;12.25;7.25;;;;;;;12.03;69.70;100047.13;6212541;23;20032;-75
2022/09/29 02:53:11;;;;;;;11.65;6.80;;;;;;;12.06;69.33;100041.91;6188673;23;20309;-74
2022/09/29 02:55:49;;;;;;;12.80;7.35;;;;;;;12.00;69.44;100049.78;6215694;23;20065;-74
2022/09/29 02:58:28;;;;;;;15.52;8.52;;;;;;;11.96;70.01;100040.22;6210818;23;20438;-75
2022/09/29 03:00:54;;;;;;;15.32;9.07;;;;;;;11.97;70.08;100048.03;6216281;23;20186;-73
2022/09/29 03:03:19;;;;;;;16.52;9.30;;;;;;;11.97;70.19;100040.22;6211239;23;20347;-74
2022/09/29 03:05:44;;;;;;;14.27;8.45;;;;;;;12.00;69.84;100044.56;6218662;23;20008;-74
2022/09/29 03:08:10;;;;;;;14.32;8.60;;;;;;;11.99;69.72;100045.44;6212913;23;20360;-74
2022/09/29 03:10:35;;;;;;;12.88;8.35;;;;;;;11.95;69.83;100052.44;6218299;23;20011;-73
2022/09/29 03:13:00;;;;;;;17.98;9.75;;;;;;;11.91;69.72;100049.81;6218431;23;20372;-74
2022/09/29 03:15:26;;;;;;;19.25;12.23;;;;;;;11.82;69.42;100048.13;6214440;23;20143;-73
2022/09/29 03:17:55;;;;;;;18.25;9.68;;;;;;;11.78;69.37;100059.44;6218446;23;20247;-74
2022/09/29 03:20:21;;;;;;;15.73;9.48;;;;;;;11.73;69.61;100058.56;6211299;23;20445;-74
2022/09/29 03:22:46;;;;;;;16.08;9.18;;;;;;;11.74;69.23;100055.13;6193759;23;20000;-74
2022/09/29 03:25:12;;;;;;;14.50;8.70;;;;;;;11.74;69.27;100052.53;6215983;23;20004;-74
2022/09/29 03:27:38;;;;;;;16.75;9.32;;;;;;;11.53;69.95;100053.44;6214669;23;20008;-75
2022/09/29 03:30:04;;;;;;;14.88;9.20;;;;;;;11.50;70.24;100056.06;6216491;23;20007;-74
2022/09/29 03:32:29;;;;;;;16.35;8.90;;;;;;;11.54;69.87;100067.34;6188135;23;20008;-74
2022/09/29 03:34:55;;;;;;;13.80;8.40;;;;;;;11.53;69.26;100061.25;6215742;23;20340;-75
2022/09/29 03:37:20;;;;;;;15.10;8.73;;;;;;;11.53;69.65;100058.66;6219407;23;20018;-75
2022/09/29 03:39:45;;;;;;;14.82;9.02;;;;;;;11.56;69.54;100065.63;6216590;23;20038;-75
2022/09/29 03:42:11;;;;;;;13.68;8.27;;;;;;;11.53;69.71;100066.47;6213276;23;20012;-75
2022/09/29 03:44:36;;;;;;;13.25;7.93;;;;;;;11.52;68.98;100066.50;6212593;23;20115;-74
2022/09/29 03:47:01;;;;;;;16.67;9.50;;;;;;;11.37;69.42;100064.78;6215178;23;20087;-74
2022/09/29 03:49:27;;;;;;;15.70;9.23;;;;;;;11.35;69.75;100061.31;6218703;23;20008;-74
2022/09/29 03:51:52;;;;;;;17.58;8.93;;;;;;;11.32;69.70;100067.44;6215456;23;20083;-73
2022/09/29 03:54:17;;;;;;;16.88;9.25;;;;;;;11.29;69.66;100069.16;6214934;23;20004;-74
2022/09/29 03:56:43;;;;;;;17.00;9.32;;;;;;;11.24;69.47;100068.31;6212780;23;20523;-74
2022/09/29 03:59:10;;;;;;;17.23;8.98;;;;;;;11.17;69.64;100066.56;6219730;23;20008;-75
2022/09/29 04:01:37;;;;;;;13.70;8.27;;;;;;;11.14;69.58;100072.69;6215943;23;20031;-75
2022/09/29 04:04:03;;;;;;;14.30;8.32;;;;;;;11.12;69.17;100070.94;6207101;23;20008;-75
2022/09/29 04:06:28;;;;;;;16.95;9.15;;;;;;;11.14;69.59;100072.69;6218172;23;20008;-75
2022/09/29 04:08:54;;;;;;;17.10;9.40;;;;;;;11.13;69.38;100077.91;6213430;23;20049;-74
2022/09/29 04:11:19;;;;;;;16.63;9.32;;;;;;;11.12;69.15;100073.53;6218493;23;20263;-74
2022/09/29 04:13:44;;;;;;;16.45;9.30;;;;;;;11.06;69.34;100074.44;6218378;23;20079;-75
2022/09/29 04:16:10;;;;;;;19.52;9.32;;;;;;;11.07;69.19;100077.91;6210994;23;20371;-74
2022/09/29 04:18:36;;;;;;;15.93;9.32;;;;;;;11.04;69.40;100072.72;6219130;23;20008;-75
2022/09/29 04:21:06;;;;;;;15.82;9.38;;;;;;;11.02;69.17;100072.69;6215179;23;20063;-75
2022/09/29 04:23:31;;;;;;;16.70;9.93;;;;;;;10.99;69.20;100081.38;6216205;23;20119;-73
2022/09/29 04:25:57;;;;;;;19.80;10.60;;;;;;;10.93;69.65;100084.00;6216089;23;21022;-73
2022/09/29 04:28:23;;;;;;;17.27;10.30;;;;;;;11.01;69.34;100080.53;6208826;23;20126;-73
2022/09/29 04:30:49;;;;;;;21.23;11.38;;;;;;;10.95;69.81;100084.00;6217008;23;20011;-75
2022/09/29 04:33:14;;;;;;;17.23;10.23;;;;;;;10.96;69.64;100085.75;6213029;23;20079;-73
2022/09/29 04:35:40;;;;;;;17.05;9.80;;;;;;;10.96;69.46;100089.22;6216677;23;20313;-73
2022/09/29 04:38:07;;;;;;;19.80;10.15;;;;;;;10.93;69.50;100091.81;6213127;23;20004;-73
2022/09/29 04:40:33;;;;;;;18.83;10.50;;;;;;;10.93;69.36;100093.56;6218469;23;20058;-73
2022/09/29 04:42:58;;;;;;;19.38;10.88;;;;;;;10.87;69.76;100098.78;6216993;23;20024;-76
2022/09/29 04:45:23;;;;;;;16.25;9.43;;;;;;;10.88;69.65;100093.56;6212033;23;20294;-73
2022/09/29 04:47:49;;;;;;;21.83;11.10;;;;;;;10.85;69.01;100103.16;6218103;23;20029;-73
2022/09/29 04:50:14;;;;;;;19.25;10.55;;;;;;;10.82;69.39;100100.53;6211475;23;20321;-73
2022/09/29 04:52:43;;;;;;;20.25;11.55;;;;;;;10.75;69.67;100104.88;6219396;23;20000;-75
2022/09/29 04:55:12;;;;;;;17.67;10.43;;;;;;;10.77;69.55;100110.09;6216486;23;20012;-75
2022/09/29 04:57:40;;;;;;;21.98;10.90;;;;;;;10.78;69.60;100109.22;6213750;23;20084;-73
2022/09/29 05:00:06;;;;;;;19.98;10.52;;;;;;;10.82;69.48;100109.22;6213181;23;20014;-74
2022/09/29 05:02:36;;;;;;;16.42;9.90;;;;;;;10.81;69.19;100110.09;6212616;23;20012;-73
2022/09/29 05:05:02;;;;;;;18.85;10.57;;;;;;;10.79;69.52;100109.22;6215330;23;20015;-73
2022/09/29 05:07:28;;;;;;;18.75;10.82;;;;;;;10.76;69.36;100118.78;6218888;23;20071;-73
2022/09/29 05:09:53;;;;;;;20.02;10.50;;;;;;;10.76;69.55;100118.78;6215311;23;20127;-73
2022/09/29 05:12:19;;;;;;;20.05;10.13;;;;;;;10.73;69.59;100117.06;6213468;23;20193;-74
2022/09/29 05:14:45;;;;;;;18.33;10.20;;;;;;;10.74;69.25;100133.53;6206518;23;20034;-73
2022/09/29 05:17:10;;;;;;;19.77;10.98;;;;;;;10.75;69.42;100128.31;6215832;23;20139;-73
2022/09/29 05:19:36;;;;;;;19.00;10.77;;;;;;;10.73;69.59;100126.59;6217861;23;20453;-74
2022/09/29 05:22:01;;;;;;;17.60;10.85;;;;;;;10.70;69.51;100126.59;6207959;23;20342;-73
2022/09/29 05:24:27;;;;;;;19.40;11.18;;;;;;;10.68;69.36;100134.41;6215193;23;20053;-73
2022/09/29 05:26:53;;;;;;;19.92;11.27;;;;;;;10.65;69.71;100136.16;6215098;23;20472;-73
2022/09/29 05:29:18;;;;;;;18.63;11.25;;;;;;;10.65;69.26;100136.16;6219041;23;20016;-73
2022/09/29 05:31:44;;;;;;;23.33;12.95;;;;;;;10.52;70.56;100143.06;6213766;23;20034;-73
2022/09/29 05:34:09;;;;;;;29.85;14.75;;;;;;;10.63;70.03;100141.34;6210457;23;20030;-73
2022/09/29 05:36:35;;;;;;;23.15;13.25;;;;;;;10.76;69.91;100147.44;6219725;23;20008;-74
2022/09/29 05:39:00;;;;;;;22.92;12.35;;;;;;;10.78;69.97;100149.22;6216675;23;20016;-73
2022/09/29 05:41:26;;;;;;;22.10;12.77;;;;;;;10.82;69.98;100147.47;6220774;23;20035;-74
2022/09/29 05:43:53;;;;;;;22.27;12.30;;;;;;;10.90;69.89;100148.34;6215151;23;20089;-76
2022/09/29 05:46:19;;;;;;;23.63;12.80;;;;;;;10.95;70.21;100144.88;6207256;23;20872;-75
2022/09/29 05:48:45;;;;;;;26.95;15.32;;;;;;;10.89;70.40;100149.22;6213905;23;20012;-75
2022/09/29 05:51:13;;;;;;;27.50;15.57;;;;;;;11.00;70.76;100150.06;6210986;23;20479;-74
2022/09/29 05:53:39;;;;;;;30.25;15.52;;;;;;;11.11;70.51;100150.06;6188077;23;20015;-74
2022/09/29 05:56:13;;;;;;;32.60;16.48;;;;;;;11.16;71.18;100143.97;6207572;23;20008;-73
2022/09/29 05:58:40;;;;;;;35.42;18.45;;;;;;;11.23;71.09;100155.28;6216939;23;20022;-74
2022/09/29 06:01:06;;;;;;;35.72;17.58;;;;;;;11.32;71.36;100150.06;6217336;23;20007;-75
2022/09/29 06:03:34;;;;;;;37.35;18.08;;;;;;;11.38;71.70;100155.28;6212077;23;20008;-74
2022/09/29 06:06:10;;;;;;;33.35;16.45;;;;;;;11.54;71.24;100146.53;6215460;23;20331;-73
2022/09/29 06:08:36;;;;;;;37.63;18.92;;;;;;;11.61;71.44;100150.00;6213679;23;20008;-74
2022/09/29 06:11:14;;;;;;;34.72;18.17;;;;;;;11.72;71.57;100151.72;6213347;23;20359;-74
2022/09/29 06:13:42;;;;;;;39.22;18.55;;;;;;;11.77;71.27;100155.19;6214897;23;20088;-74
2022/09/29 06:16:08;;;;;;;36.65;16.83;;;;;;;11.84;71.20;100160.41;6208194;23;20012;-74
2022/09/29 06:18:34;;;;;;;37.00;18.02;;;;;;;11.85;71.02;100156.94;6217716;23;20061;-74
2022/09/29 06:21:07;;;;;;;33.90;17.08;;;;;;;11.84;71.07;100158.66;6215127;22;20091;-75
2022/09/29 06:23:33;;;;;;;32.70;16.90;;;;;;;11.87;70.98;100163.91;6215119;23;20008;-74
2022/09/29 06:26:01;;;;;;;31.38;16.73;;;;;;;12.00;71.95;100164.72;6213248;23;20095;-74
2022/09/29 06:28:27;;;;;;;39.67;19.38;;;;;;;12.52;72.91;100162.72;6213722;23;20016;-75
2022/09/29 06:31:00;;;;;;;34.88;19.65;;;;;;;13.02;70.12;100170.22;6217485;23;20011;-75
2022/09/29 06:33:27;;;;;;;34.90;18.77;;;;;;;13.53;68.49;100165.47;6215193;23;20015;-73
2022/09/29 06:38:36;;;;;;;22.83;16.20;;;;;;;14.53;64.27;100175.63;6210690;23;20038;-73
2022/09/29 06:41:02;;;;;;;20.77;14.82;;;;;;;14.99;62.04;100169.72;6187943;23;20411;-73
2022/09/29 06:43:27;;;;;;;18.67;13.50;;;;;;;15.68;62.29;100177.28;6213512;23;20261;-74
2022/09/29 06:45:53;;;;;;;17.73;12.68;;;;;;;16.00;58.82;100184.56;6211864;23;20336;-73
2022/09/29 06:48:18;;;;;;;20.15;12.55;;;;;;;16.00;56.49;100187.19;6214098;23;20026;-74
2022/09/29 06:50:44;;;;;;;17.50;12.63;;;;;;;16.26;56.54;100184.91;6214320;23;20087;-75
2022/09/29 06:53:09;;;;;;;18.48;12.20;;;;;;;16.33;55.62;100186.53;6188312;23;20525;-74
2022/09/29 06:55:34;;;;;;;16.58;11.77;;;;;;;17.02;53.71;100189.38;6216484;23;20031;-74
2022/09/29 06:58:00;;;;;;;17.17;12.10;;;;;;;17.06;52.59;100191.94;6208060;23;20023;-73
2022/09/29 07:00:25;;;;;;;18.13;11.65;;;;;;;16.92;53.57;100200.16;6219120;23;20457;-75
2022/09/29 07:02:51;;;;;;;16.55;11.55;;;;;;;17.39;53.68;100191.09;6184108;23;20402;-75
2022/09/29 07:05:16;;;;;;;15.63;11.57;;;;;;;17.55;52.33;100192.47;6220063;23;20000;-74
2022/09/29 07:07:42;;;;;;;14.82;10.73;;;;;;;18.67;50.21;100204.28;6217875;23;20239;-75
2022/09/29 07:10:08;;;;;;;17.45;11.63;;;;;;;18.40;50.37;100197.16;6212252;23;20015;-75
2022/09/29 07:12:33;;;;;;;17.90;12.57;;;;;;;17.76;51.05;100202.47;6216361;23;20015;-73
2022/09/29 07:14:59;;;;;;;17.40;12.07;;;;;;;17.45;51.48;100199.72;6218435;23;20008;-71
2022/09/29 07:17:24;;;;;;;15.95;12.70;;;;;;;16.92;52.63;100200.16;6228208;23;20004;-74
2022/09/29 07:19:50;;;;;;;17.30;12.27;;;;;;;16.12;55.46;100203.59;6218525;23;20391;-74
2022/09/29 07:22:15;;;;;;;18.80;13.88;;;;;;;15.58;57.31;100209.91;6207899;23;20019;-74
2022/09/29 07:24:42;;;;;;;19.10;14.55;;;;;;;15.08;59.09;100214.19;6210149;23;20379;-74
2022/09/29 07:27:08;;;;;;;23.55;15.90;;;;;;;14.55;61.04;100218.44;6213185;23;20135;-74
2022/09/29 07:29:34;;;;;;;23.90;16.08;;;;;;;14.28;62.75;100221.38;6215685;23;20008;-74
2022/09/29 07:31:59;;;;;;;24.33;16.23;;;;;;;14.05;63.94;100216.41;6213109;23;20008;-75
2022/09/29 07:34:25;;;;;;;24.45;16.13;;;;;;;13.91;65.09;100217.44;6209007;23;20463;-74
2022/09/29 07:36:50;;;;;;;22.77;15.63;;;;;;;13.92;65.54;100222.66;6218435;23;20083;-74
2022/09/29 07:39:16;;;;;;;20.63;14.93;;;;;;;14.01;66.12;100222.59;6211938;23;20274;-75
2022/09/29 07:41:41;;;;;;;20.80;14.80;;;;;;;14.10;66.18;100222.47;6215820;23;20013;-75
2022/09/29 07:44:07;;;;;;;19.17;14.27;;;;;;;14.13;65.87;100229.44;6206623;23;20004;-75
2022/09/29 07:46:32;;;;;;;21.70;13.55;;;;;;;14.27;66.09;100234.53;6216376;23;20384;-74
2022/09/29 07:48:58;;;;;;;20.45;13.77;;;;;;;14.35;66.06;100235.28;6217235;23;20261;-74
2022/09/29 07:51:23;;;;;;;18.98;13.82;;;;;;;14.19;66.06;100242.47;6217690;23;20008;-75
2022/09/29 07:53:48;;;;;;;18.73;13.63;;;;;;;14.09;66.24;100249.56;6214429;23;20004;-75
2022/09/29 07:56:17;;;;;;;18.92;13.80;;;;;;;14.12;66.62;100244.28;6208720;23;20840;-75
2022/09/29 07:58:43;;;;;;;18.90;13.98;;;;;;;14.35;66.67;100254.50;6216528;23;20313;-74
2022/09/29 08:01:12;;;;;;;17.55;12.13;;;;;;;14.50;65.99;100251.75;6217037;23;20012;-75
2022/09/29 08:03:39;;;;;;;20.00;13.85;;;;;;;14.47;66.22;100257.03;6210352;23;20012;-75
2022/09/29 08:06:05;;;;;;;23.45;13.52;;;;;;;14.58;65.79;100263.00;6214204;23;20306;-75
2022/09/29 08:08:31;;;;;;;19.52;13.57;;;;;;;14.58;65.81;100259.50;6213310;23;20019;-74
2022/09/29 08:11:05;;;;;;;20.02;13.85;;;;;;;14.67;65.37;100269.88;6216121;23;20008;-75
2022/09/29 08:13:31;;;;;;;19.48;13.40;;;;;;;14.70;65.73;100263.75;6215818;23;20312;-74
2022/09/29 08:16:01;;;;;;;17.15;13.38;;;;;;;14.56;65.87;100274.41;6211251;23;20012;-74
2022/09/29 08:18:28;;;;;;;18.27;12.38;;;;;;;14.88;65.32;100271.38;6217014;23;20079;-73
2022/09/29 08:20:53;;;;;;;16.15;12.32;;;;;;;15.05;65.13;100274.63;6213190;23;20051;-73
2022/09/29 08:23:20;;;;;;;16.08;12.05;;;;;;;15.30;64.76;100269.88;6213687;23;20019;-73
2022/09/29 08:25:45;;;;;;;16.80;12.45;;;;;;;14.98;64.74;100286.09;6192590;23;20032;-75
2022/09/29 08:28:10;;;;;;;18.60;12.52;;;;;;;15.24;64.81;100280.47;6208397;23;20482;-75
2022/09/29 08:30:37;;;;;;;17.70;12.93;;;;;;;15.30;64.36;100283.00;6218023;23;20074;-75
2022/09/29 08:33:03;;;;;;;15.73;11.48;;;;;;;15.47;64.10;100286.22;6208298;22;20012;-75
2022/09/29 08:35:28;;;;;;;14.55;11.63;;;;;;;15.68;64.21;100292.91;6216077;23;20595;-73
2022/09/29 08:37:56;;;;;;;15.25;11.32;;;;;;;15.74;63.72;100304.19;6216253;23;20008;-74
2022/09/29 08:40:22;;;;;;;12.23;9.18;;;;;;;15.61;64.01;100312.34;6208778;23;20014;-75
2022/09/29 08:42:59;;;;;;;13.27;10.23;;;;;;;15.78;62.54;100312.91;6215548;23;20404;-74
2022/09/29 08:45:38;;;;;;;13.90;9.88;;;;;;;15.91;62.95;100310.94;6185599;23;20069;-74
2022/09/29 08:48:15;;;;;;;14.30;9.80;;;;;;;16.08;63.23;100319.41;6215621;23;20015;-75
2022/09/29 08:50:55;;;;;;;16.75;10.43;;;;;;;15.77;62.76;100314.69;6209784;23;20329;-75
2022/09/29 08:53:23;;;;;;;17.95;10.70;;;;;;;16.07;62.94;100323.78;6213978;23;20034;-73
2022/09/29 08:56:04;;;;;;;13.13;9.93;;;;;;;16.16;63.58;100328.88;6215894;23;20004;-73
2022/09/29 08:58:31;;;;;;;16.70;10.60;;;;;;;16.25;61.74;100322.59;6191641;23;20008;-74
2022/09/29 09:01:34;;;;;;;13.52;9.48;;;;;;;16.42;61.43;100327.53;6196277;23;20030;-75
2022/09/29 09:04:35;;;;;;;15.40;9.90;;;;;;;16.46;61.63;100327.47;6175356;23;20012;-74
2022/09/29 09:07:20;;;;;;;12.38;8.77;;;;;;;16.59;60.89;100331.59;6208782;23;20363;-74
2022/09/29 09:10:05;;;;;;;10.57;8.05;;;;;;;16.39;61.50;100330.22;6194931;23;20543;-74
2022/09/29 09:12:36;;;;;;;11.63;7.40;;;;;;;16.49;61.43;100331.78;6212152;23;20116;-74
2022/09/29 09:15:14;;;;;;;9.32;6.30;;;;;;;16.28;60.12;100317.28;6210634;23;20154;-74
2022/09/29 09:17:57;;;;;;;9.65;7.65;;;;;;;16.24;60.76;100326.97;6214199;23;20035;-75
2022/09/29 09:20:35;;;;;;;10.15;7.60;;;;;;;16.36;61.26;100325.00;6209285;23;24235;-75
2022/09/29 09:23:16;;;;;;;9.23;6.75;;;;;;;16.24;60.91;100328.72;6211013;23;20352;-75
2022/09/29 09:25:51;;;;;;;10.30;6.68;;;;;;;16.00;61.96;100331.81;6214370;23;20012;-76
2022/09/29 09:28:21;;;;;;;10.43;6.38;;;;;;;16.56;60.71;100330.75;6206481;23;20099;-74
2022/09/29 09:31:10;;;;;;;9.38;6.38;;;;;;;16.46;61.69;100329.22;6218953;23;20016;-75
2022/09/29 09:34:17;;;;;;;6.68;4.70;;;;;;;16.84;59.58;100336.34;6208956;23;20215;-75
2022/09/29 09:36:54;;;;;;;6.07;4.63;;;;;;;16.88;58.34;100328.38;6182054;23;20447;-75
2022/09/29 09:39:28;;;;;;;7.65;5.18;;;;;;;17.22;58.01;100338.19;6212117;23;20091;-75
2022/09/29 09:41:58;;;;;;;7.00;5.15;;;;;;;17.10;58.32;100336.69;6188063;23;20008;-75
2022/09/29 09:44:32;;;;;;;7.18;4.78;;;;;;;17.19;57.42;100335.63;6178464;23;23104;-74
2022/09/29 09:47:17;;;;;;;8.10;4.78;;;;;;;17.36;56.72;100336.09;6214591;23;20014;-75
2022/09/29 09:49:46;;;;;;;8.02;4.85;;;;;;;17.09;56.85;100340.22;6218975;23;20050;-75
2022/09/29 09:52:47;;;;;;;5.80;4.03;;;;;;;17.43;56.14;100342.97;6179143;23;20451;-75
2022/09/29 09:55:23;;;;;;;5.18;2.90;;;;;;;17.42;53.73;100343.88;6212070;23;20015;-76
2022/09/29 09:58:01;;;;;;;7.30;3.97;;;;;;;17.40;55.73;100340.41;6210493;23;20007;-76
2022/09/29 10:00:46;;;;;;;5.35;3.47;;;;;;;17.43;56.24;100342.97;6215980;23;20267;-74
2022/09/29 10:03:13;;;;;;;;;;;;;;;17.61;55.07;100345.22;6208578;23;20044;-74
2022/09/29 10:05:41;;;;;;;4.45;2.80;;;;;;;17.77;55.15;100338.66;6188276;23;19977;-75
2022/09/29 10:08:37;;;;;;;5.68;2.78;;;;;;;17.60;53.86;100346.13;6212951;23;20004;-76
2022/09/29 10:11:22;;;;;;;4.13;3.22;;;;;;;17.58;55.10;100339.09;6215166;23;20054;-75
2022/09/29 10:13:54;;;;;;;5.43;3.50;;;;;;;17.55;55.41;100341.81;6215325;23;20008;-75
2022/09/29 10:16:27;;;;;;;7.40;3.50;;;;;;;17.67;52.47;100344.19;6208494;23;20466;-74
2022/09/29 10:18:53;;;;;;;6.90;3.33;;;;;;;17.62;55.06;100346.97;6219975;23;20115;-75
2022/09/29 10:21:35;;;;;;;5.85;3.60;;;;;;;17.76;55.56;100339.56;6185529;23;20251;-74
2022/09/29 10:24:03;;;;;;;6.28;3.80;;;;;;;17.80;54.24;100348.28;6206741;23;20011;-74
2022/09/29 10:26:36;;;;;;;7.22;3.50;;;;;;;17.77;53.25;100351.84;6213478;23;20985;-74
2022/09/29 10:29:36;;;;;;;4.22;2.72;;;;;;;17.45;51.87;100355.19;6217933;23;20091;-74
2022/09/29 10:32:13;;;;;;;5.93;2.97;;;;;;;17.71;51.73;100357.25;6185088;23;20019;-76
2022/09/29 10:34:45;;;;;;;3.83;2.55;;;;;;;17.75;51.97;100353.63;6214923;23;20527;-75
2022/09/29 10:37:27;;;;;;;4.50;3.03;;;;;;;17.96;51.75;100354.03;6218013;23;20004;-75
2022/09/29 10:40:22;;;;;;;4.72;3.03;;;;;;;17.70;51.39;100352.88;6212867;23;20023;-74
2022/09/29 10:42:49;;;;;;;;;;;;;;;18.03;50.58;100356.47;6207670;23;20479;-73
2022/09/29 10:45:26;;;;;;;3.65;2.45;;;;;;;18.20;51.02;100354.28;6213353;23;19938;-75
2022/09/29 10:47:59;;;;;;;5.90;2.30;;;;;;;18.36;51.00;100359.16;6215481;23;20057;-74
2022/09/29 10:50:33;;;;;;;4.30;2.60;;;;;;;18.50;49.55;100355.22;6175411;23;20437;-75
2022/09/29 10:53:03;;;;;;;4.45;2.72;;;;;;;18.52;48.98;100356.06;6191948;23;20031;-73
2022/09/29 10:55:32;;;;;;;3.33;2.60;;;;;;;18.76;46.96;100358.97;6185780;23;20008;-74
2022/09/29 10:58:16;;;;;;;3.70;2.30;;;;;;;18.56;46.37;100360.38;6212949;23;20435;-75
2022/09/29 11:00:42;;;;;;;3.95;2.38;;;;;;;18.86;47.59;100366.56;6175106;23;20091;-76
2022/09/29 11:03:19;;;;;;;3.67;2.20;;;;;;;18.88;46.85;100364.75;6211335;23;20492;-75
2022/09/29 11:05:55;;;;;;;3.70;2.47;;;;;;;18.49;47.06;100364.03;6187071;23;20008;-74
2022/09/29 11:08:24;;;;;;;2.78;2.00;;;;;;;18.89;45.17;100360.34;6176735;23;20008;-73
2022/09/29 11:11:04;;;;;;;3.38;1.80;;;;;;;18.95;47.67;100373.38;6213313;23;20446;-74
2022/09/29 11:13:36;;;;;;;4.25;2.05;;;;;;;18.68;46.04;100364.44;6213259;23;20000;-74
2022/09/29 11:16:14;;;;;;;2.97;1.85;;;;;;;18.97;46.44;100377.69;6192477;23;20008;-75
2022/09/29 11:18:42;;;;;;;4.05;2.30;;;;;;;18.31;48.70;100368.94;6210759;23;20659;-75
2022/09/29 11:21:46;;;;;;;4.20;2.00;;;;;;;18.62;46.92;100372.53;6213556;23;20099;-74
2022/09/29 11:24:21;;;;;;;3.50;2.05;;;;;;;18.69;47.63;100375.88;6213460;23;20019;-74
2022/09/29 11:26:57;;;;;;;3.38;2.30;;;;;;;18.71;46.40;100369.66;6211261;23;20102;-75
2022/09/29 11:29:32;;;;;;;4.80;2.00;;;;;;;18.98;44.55;100375.91;6216075;23;20086;-75
2022/09/29 11:32:38;;;;;;;3.20;2.38;;;;;;;19.11;44.59;100372.00;6192567;23;20016;-74
2022/09/29 11:35:30;;;;;;;4.80;2.47;;;;;;;19.35;44.58;100378.34;6213079;23;20032;-75